sensor_id;sensor_type;location;lat;lon;timestamp;pressure;altitude;pressure_sealevel;temperature;humidity
34979;BME280;21185;50.978;13.720;2023-03-08T00:02:58;96534.81;;;3.52;70.35
34979;BME280;21185;50.978;13.720;2023-03-08T00:08:01;96536.72;;;3.50;70.44
34979;BME280;21185;50.978;13.720;2023-03-08T00:13:02;96540.59;;;3.46;70.64
34979;BME280;21185;50.978;13.720;2023-03-08T00:18:05;96553.56;;;3.44;70.54
34979;BME280;21185;50.978;13.720;2023-03-08T00:23:08;96562.22;;;3.43;70.48
34979;BME280;21185;50.978;13.720;2023-03-08T00:28:13;96567.50;;;3.42;70.45
34979;BME280;21185;50.978;13.720;2023-03-08T00:33:16;96563.66;;;3.38;70.42
34979;BME280;21185;50.978;13.720;2023-03-08T00:38:18;96589.91;;;3.32;70.47
34979;BME280;21185;50.978;13.720;2023-03-08T00:43:20;96588.94;;;3.24;70.42
34979;BME280;21185;50.978;13.720;2023-03-08T00:48:22;96580.94;;;3.19;70.40
34979;BME280;21185;50.978;13.720;2023-03-08T00:53:25;96592.44;;;3.15;70.63
34979;BME280;21185;50.978;13.720;2023-03-08T00:58:28;96599.50;;;3.13;70.60
34979;BME280;21185;50.978;13.720;2023-03-08T01:03:33;96603.00;;;3.12;70.47
34979;BME280;21185;50.978;13.720;2023-03-08T01:08:35;96597.88;;;3.12;70.33
34979;BME280;21185;50.978;13.720;2023-03-08T01:13:37;96586.03;;;3.11;70.32
34979;BME280;21185;50.978;13.720;2023-03-08T01:18:41;96597.25;;;3.10;70.19
34979;BME280;21185;50.978;13.720;2023-03-08T01:23:43;96604.28;;;3.08;70.38
34979;BME280;21185;50.978;13.720;2023-03-08T01:28:45;96600.91;;;3.08;70.18
34979;BME280;21185;50.978;13.720;2023-03-08T01:33:48;96603.00;;;3.04;70.35
34979;BME280;21185;50.978;13.720;2023-03-08T01:38:59;96601.38;;;3.03;70.15
34979;BME280;21185;50.978;13.720;2023-03-08T01:44:15;96594.16;;;2.99;70.21
34979;BME280;21185;50.978;13.720;2023-03-08T01:49:22;96582.63;;;2.95;70.38
34979;BME280;21185;50.978;13.720;2023-03-08T01:54:31;96586.16;;;2.93;70.40
34979;BME280;21185;50.978;13.720;2023-03-08T01:59:34;96585.50;;;2.91;70.45
34979;BME280;21185;50.978;13.720;2023-03-08T02:04:37;96607.25;;;2.87;70.35
34979;BME280;21185;50.978;13.720;2023-03-08T02:09:44;96590.59;;;2.83;70.79
34979;BME280;21185;50.978;13.720;2023-03-08T02:14:47;96601.66;;;2.84;70.40
34979;BME280;21185;50.978;13.720;2023-03-08T02:19:59;96583.72;;;2.84;70.40
34979;BME280;21185;50.978;13.720;2023-03-08T02:25:19;96596.53;;;2.84;70.60
34979;BME280;21185;50.978;13.720;2023-03-08T02:30:24;96589.78;;;2.83;70.35
34979;BME280;21185;50.978;13.720;2023-03-08T02:35:28;96596.97;;;2.79;70.47
34979;BME280;21185;50.978;13.720;2023-03-08T02:40:30;96591.72;;;2.81;70.54
34979;BME280;21185;50.978;13.720;2023-03-08T02:45:32;96595.72;;;2.83;70.43
34979;BME280;21185;50.978;13.720;2023-03-08T02:50:35;96594.91;;;2.83;70.45
34979;BME280;21185;50.978;13.720;2023-03-08T02:55:37;96594.91;;;2.83;70.66
34979;BME280;21185;50.978;13.720;2023-03-08T03:01:17;96598.94;;;2.85;70.74
34979;BME280;21185;50.978;13.720;2023-03-08T03:06:21;96595.56;;;2.85;70.61
34979;BME280;21185;50.978;13.720;2023-03-08T03:11:26;96614.16;;;2.87;70.59
34979;BME280;21185;50.978;13.720;2023-03-08T03:16:29;96616.72;;;2.87;70.57
34979;BME280;21185;50.978;13.720;2023-03-08T03:21:32;96604.84;;;2.86;70.71
34979;BME280;21185;50.978;13.720;2023-03-08T03:26:34;96604.84;;;2.86;70.60
34979;BME280;21185;50.978;13.720;2023-03-08T03:31:36;96609.97;;;2.86;70.74
34979;BME280;21185;50.978;13.720;2023-03-08T03:36:39;96615.25;;;2.84;70.64
34979;BME280;21185;50.978;13.720;2023-03-08T03:41:41;96623.09;;;2.83;70.79
34979;BME280;21185;50.978;13.720;2023-03-08T03:46:46;96609.63;;;2.81;70.93
34979;BME280;21185;50.978;13.720;2023-03-08T03:51:56;96623.41;;;2.80;70.86
34979;BME280;21185;50.978;13.720;2023-03-08T03:57:05;96629.47;;;2.79;70.98
34979;BME280;21185;50.978;13.720;2023-03-08T04:02:11;96631.09;;;2.80;71.02
34979;BME280;21185;50.978;13.720;2023-03-08T04:07:22;96636.22;;;2.80;71.12
34979;BME280;21185;50.978;13.720;2023-03-08T04:12:30;96630.94;;;2.81;71.38
34979;BME280;21185;50.978;13.720;2023-03-08T04:17:32;96642.63;;;2.84;71.00
34979;BME280;21185;50.978;13.720;2023-03-08T04:22:35;96638.47;;;2.83;71.16
34979;BME280;21185;50.978;13.720;2023-03-08T04:27:48;96635.91;;;2.83;71.28
34979;BME280;21185;50.978;13.720;2023-03-08T04:32:55;96637.50;;;2.84;71.12
34979;BME280;21185;50.978;13.720;2023-03-08T04:38:03;96639.13;;;2.85;71.25
34979;BME280;21185;50.978;13.720;2023-03-08T04:43:33;96628.88;;;2.85;71.42
34979;BME280;21185;50.978;13.720;2023-03-08T04:48:36;96618.63;;;2.85;71.32
34979;BME280;21185;50.978;13.720;2023-03-08T04:53:40;96634.78;;;2.85;71.59
34979;BME280;21185;50.978;13.720;2023-03-08T04:58:46;96628.88;;;2.85;71.47
34979;BME280;21185;50.978;13.720;2023-03-08T05:03:53;96618.63;;;2.85;71.38
34979;BME280;21185;50.978;13.720;2023-03-08T05:09:02;96633.19;;;2.84;71.72
34979;BME280;21185;50.978;13.720;2023-03-08T05:14:06;96635.75;;;2.84;71.73
34979;BME280;21185;50.978;13.720;2023-03-08T05:19:08;96640.06;;;2.84;71.72
34979;BME280;21185;50.978;13.720;2023-03-08T05:24:18;96631.72;;;2.82;71.70
34979;BME280;21185;50.978;13.720;2023-03-08T05:29:22;96634.28;;;2.82;71.69
34979;BME280;21185;50.978;13.720;2023-03-08T05:34:24;96628.38;;;2.81;71.65
34979;BME280;21185;50.978;13.720;2023-03-08T05:39:26;96635.75;;;2.84;71.77
34979;BME280;21185;50.978;13.720;2023-03-08T05:44:50;96645.84;;;2.86;71.86
34979;BME280;21185;50.978;13.720;2023-03-08T05:49:57;96653.22;;;2.89;71.77
34979;BME280;21185;50.978;13.720;2023-03-08T05:55:06;96653.88;;;2.91;71.96
34979;BME280;21185;50.978;13.720;2023-03-08T06:00:10;96651.97;;;2.93;71.88
34979;BME280;21185;50.978;13.720;2023-03-08T06:05:23;96660.28;;;2.95;71.97
34979;BME280;21185;50.978;13.720;2023-03-08T06:10:29;96663.19;;;3.00;71.83
34979;BME280;21185;50.978;13.720;2023-03-08T06:15:32;96653.75;;;3.01;72.12
34979;BME280;21185;50.978;13.720;2023-03-08T06:20:34;96656.97;;;3.03;72.22
34979;BME280;21185;50.978;13.720;2023-03-08T06:25:36;96665.44;;;3.03;72.29
34979;BME280;21185;50.978;13.720;2023-03-08T06:30:38;96670.41;;;3.05;72.18
34979;BME280;21185;50.978;13.720;2023-03-08T06:35:40;96669.16;;;3.09;72.24
34979;BME280;21185;50.978;13.720;2023-03-08T06:40:42;96650.44;;;3.16;72.36
34979;BME280;21185;50.978;13.720;2023-03-08T06:45:44;96649.00;;;3.22;72.40
34979;BME280;21185;50.978;13.720;2023-03-08T06:50:47;96637.34;;;3.28;72.49
34979;BME280;21185;50.978;13.720;2023-03-08T06:55:49;96644.41;;;3.34;72.51
34979;BME280;21185;50.978;13.720;2023-03-08T07:00:53;96642.97;;;3.39;72.42
34979;BME280;21185;50.978;13.720;2023-03-08T07:05:59;96653.06;;;3.41;72.62
34979;BME280;21185;50.978;13.720;2023-03-08T07:11:01;96655.94;;;3.38;72.72
34979;BME280;21185;50.978;13.720;2023-03-08T07:16:07;96657.06;;;3.35;72.68
34979;BME280;21185;50.978;13.720;2023-03-08T07:21:10;96663.31;;;3.33;73.08
34979;BME280;21185;50.978;13.720;2023-03-08T07:26:12;96663.97;;;3.43;73.05
34979;BME280;21185;50.978;13.720;2023-03-08T07:31:14;96659.03;;;3.49;72.81
34979;BME280;21185;50.978;13.720;2023-03-08T07:36:19;96660.94;;;3.55;72.91
34979;BME280;21185;50.978;13.720;2023-03-08T07:41:21;96661.13;;;3.62;73.02
34979;BME280;21185;50.978;13.720;2023-03-08T07:46:24;96657.28;;;3.66;73.19
34979;BME280;21185;50.978;13.720;2023-03-08T07:51:26;96654.72;;;3.74;72.72
34979;BME280;21185;50.978;13.720;2023-03-08T07:56:28;96654.25;;;3.79;72.93
34979;BME280;21185;50.978;13.720;2023-03-08T08:01:33;96665.00;;;3.82;73.04
34979;BME280;21185;50.978;13.720;2023-03-08T08:06:35;96661.16;;;3.86;73.16
34979;BME280;21185;50.978;13.720;2023-03-08T08:11:37;96649.13;;;3.87;73.33
34979;BME280;21185;50.978;13.720;2023-03-08T08:16:39;96650.56;;;3.98;73.03
34979;BME280;21185;50.978;13.720;2023-03-08T08:21:41;96637.91;;;3.96;73.20
34979;BME280;21185;50.978;13.720;2023-03-08T08:26:43;96639.34;;;4.07;73.36
34979;BME280;21185;50.978;13.720;2023-03-08T08:31:46;96625.22;;;4.11;73.19
34979;BME280;21185;50.978;13.720;2023-03-08T08:36:49;96631.63;;;4.23;73.37
34979;BME280;21185;50.978;13.720;2023-03-08T08:41:51;96624.88;;;4.30;73.13
34979;BME280;21185;50.978;13.720;2023-03-08T08:46:52;96615.41;;;4.31;73.21
34979;BME280;21185;50.978;13.720;2023-03-08T08:51:54;96614.13;;;4.35;73.29
34979;BME280;21185;50.978;13.720;2023-03-08T08:56:57;96611.56;;;4.27;73.29
34979;BME280;21185;50.978;13.720;2023-03-08T09:01:59;96604.50;;;4.20;73.44
34979;BME280;21185;50.978;13.720;2023-03-08T09:07:02;96597.47;;;4.14;73.85
34979;BME280;21185;50.978;13.720;2023-03-08T09:12:05;96585.44;;;4.07;73.54
34979;BME280;21185;50.978;13.720;2023-03-08T09:17:07;96575.19;;;4.07;73.94
34979;BME280;21185;50.978;13.720;2023-03-08T09:22:09;96565.88;;;4.06;74.00
34979;BME280;21185;50.978;13.720;2023-03-08T09:27:12;96562.34;;;4.07;74.14
34979;BME280;21185;50.978;13.720;2023-03-08T09:32:14;96553.03;;;4.06;74.02
34979;BME280;21185;50.978;13.720;2023-03-08T09:37:20;96544.06;;;4.10;74.21
34979;BME280;21185;50.978;13.720;2023-03-08T09:42:32;96536.97;;;4.20;74.31
34979;BME280;21185;50.978;13.720;2023-03-08T09:53:17;96514.66;;;4.20;74.77
34979;BME280;21185;50.978;13.720;2023-03-08T09:58:54;96508.06;;;4.26;75.17
34979;BME280;21185;50.978;13.720;2023-03-08T10:09:30;96494.00;;;4.14;75.52
34979;BME280;21185;50.978;13.720;2023-03-08T10:14:35;96503.31;;;4.07;75.51
34979;BME280;21185;50.978;13.720;2023-03-08T10:19:43;96492.75;;;4.02;75.42
34979;BME280;21185;50.978;13.720;2023-03-08T10:24:52;96489.69;;;3.98;75.72
34979;BME280;21185;50.978;13.720;2023-03-08T10:29:58;96486.34;;;3.89;75.77
34979;BME280;21185;50.978;13.720;2023-03-08T10:35:02;96475.13;;;3.90;75.65
34979;BME280;21185;50.978;13.720;2023-03-08T10:40:15;96470.78;;;3.91;76.01
34979;BME280;21185;50.978;13.720;2023-03-08T10:45:20;96469.50;;;3.95;76.01
34979;BME280;21185;50.978;13.720;2023-03-08T10:50:29;96463.25;;;3.98;75.79
34979;BME280;21185;50.978;13.720;2023-03-08T11:00:51;96443.53;;;3.90;75.99
34979;BME280;21185;50.978;13.720;2023-03-08T11:06:04;96440.81;;;3.83;76.50
34979;BME280;21185;50.978;13.720;2023-03-08T11:11:13;96425.25;;;3.85;76.05
34979;BME280;21185;50.978;13.720;2023-03-08T11:16:47;96408.56;;;3.89;76.35
34979;BME280;21185;50.978;13.720;2023-03-08T11:38:21;96340.84;;;3.98;76.44
34979;BME280;21185;50.978;13.720;2023-03-08T11:54:18;96312.00;;;3.96;76.40
34979;BME280;21185;50.978;13.720;2023-03-08T11:59:49;96299.47;;;4.01;76.50
34979;BME280;21185;50.978;13.720;2023-03-08T12:05:01;96292.69;;;4.08;76.49
34979;BME280;21185;50.978;13.720;2023-03-08T12:10:25;96285.06;;;4.23;76.50
34979;BME280;21185;50.978;13.720;2023-03-08T12:20:42;96280.66;;;4.32;76.30
34979;BME280;21185;50.978;13.720;2023-03-08T12:25:49;96279.34;;;4.36;76.54
34979;BME280;21185;50.978;13.720;2023-03-08T12:36:15;96265.53;;;4.37;76.22
34979;BME280;21185;50.978;13.720;2023-03-08T12:41:30;96264.06;;;4.42;76.55
34979;BME280;21185;50.978;13.720;2023-03-08T12:46:47;96260.63;;;4.50;76.68
34979;BME280;21185;50.978;13.720;2023-03-08T12:52:06;96256.22;;;4.59;76.64
34979;BME280;21185;50.978;13.720;2023-03-08T12:57:30;96254.72;;;4.64;76.19
34979;BME280;21185;50.978;13.720;2023-03-08T13:02:33;96258.34;;;4.70;76.38
34979;BME280;21185;50.978;13.720;2023-03-08T13:07:48;96265.53;;;4.74;76.79
34979;BME280;21185;50.978;13.720;2023-03-08T13:18:40;96256.97;;;4.82;76.58
34979;BME280;21185;50.978;13.720;2023-03-08T13:29:20;96248.81;;;4.93;76.66
34979;BME280;21185;50.978;13.720;2023-03-08T13:34:28;96240.59;;;4.98;76.89
34979;BME280;21185;50.978;13.720;2023-03-08T13:39:30;96245.81;;;5.04;76.52
34979;BME280;21185;50.978;13.720;2023-03-08T13:44:32;96237.75;;;5.07;76.78
34979;BME280;21185;50.978;13.720;2023-03-08T13:49:36;96230.56;;;5.03;76.82
34979;BME280;21185;50.978;13.720;2023-03-08T13:54:48;96219.22;;;4.97;76.73
34979;BME280;21185;50.978;13.720;2023-03-08T13:59:57;96210.72;;;4.97;77.07
34979;BME280;21185;50.978;13.720;2023-03-08T14:04:59;96192.09;;;4.95;76.84
34979;BME280;21185;50.978;13.720;2023-03-08T14:10:02;96181.47;;;4.83;76.96
34979;BME280;21185;50.978;13.720;2023-03-08T14:15:05;96191.47;;;4.78;77.30
34979;BME280;21185;50.978;13.720;2023-03-08T14:20:20;96165.69;;;4.71;77.52
34979;BME280;21185;50.978;13.720;2023-03-08T14:25:28;96163.75;;;4.73;77.69
34979;BME280;21185;50.978;13.720;2023-03-08T14:30:31;96167.28;;;4.72;77.65
34979;BME280;21185;50.978;13.720;2023-03-08T14:35:37;96165.25;;;4.68;77.70
34979;BME280;21185;50.978;13.720;2023-03-08T14:40:48;96160.03;;;4.61;77.93
34979;BME280;21185;50.978;13.720;2023-03-08T14:46:34;96163.91;;;4.57;77.91
34979;BME280;21185;50.978;13.720;2023-03-08T14:56:22;96135.03;;;4.55;77.95
34979;BME280;21185;50.978;13.720;2023-03-08T15:01:30;96137.16;;;4.51;77.75
34979;BME280;21185;50.978;13.720;2023-03-08T15:06:35;96128.84;;;4.49;78.08
34979;BME280;21185;50.978;13.720;2023-03-08T15:11:39;96101.56;;;4.48;78.05
34979;BME280;21185;50.978;13.720;2023-03-08T15:16:41;96091.47;;;4.47;78.06
34979;BME280;21185;50.978;13.720;2023-03-08T15:21:43;96096.59;;;4.47;78.13
34979;BME280;21185;50.978;13.720;2023-03-08T15:26:45;96093.69;;;4.50;78.00
34979;BME280;21185;50.978;13.720;2023-03-08T15:31:47;96090.50;;;4.48;78.18
34979;BME280;21185;50.978;13.720;2023-03-08T15:36:50;96092.63;;;4.44;78.19
34979;BME280;21185;50.978;13.720;2023-03-08T15:41:52;96080.31;;;4.40;78.33
34979;BME280;21185;50.978;13.720;2023-03-08T15:46:54;96077.66;;;4.33;78.29
34979;BME280;21185;50.978;13.720;2023-03-08T15:51:56;96063.41;;;4.31;78.60
34979;BME280;21185;50.978;13.720;2023-03-08T15:56:58;96061.00;;;4.29;78.58
34979;BME280;21185;50.978;13.720;2023-03-08T16:02:00;96049.16;;;4.28;78.64
34979;BME280;21185;50.978;13.720;2023-03-08T16:07:02;96048.34;;;4.28;78.75
34979;BME280;21185;50.978;13.720;2023-03-08T16:12:05;96041.09;;;4.31;78.49
34979;BME280;21185;50.978;13.720;2023-03-08T16:17:07;96044.09;;;4.35;78.45
34979;BME280;21185;50.978;13.720;2023-03-08T16:22:10;96047.72;;;4.40;78.64
34979;BME280;21185;50.978;13.720;2023-03-08T16:27:12;96044.81;;;4.43;78.44
34979;BME280;21185;50.978;13.720;2023-03-08T16:32:14;96038.34;;;4.47;78.38
34979;BME280;21185;50.978;13.720;2023-03-08T16:37:17;96028.88;;;4.48;78.28
34979;BME280;21185;50.978;13.720;2023-03-08T16:42:20;96035.59;;;4.49;78.49
34979;BME280;21185;50.978;13.720;2023-03-08T16:47:23;96042.16;;;4.51;78.45
34979;BME280;21185;50.978;13.720;2023-03-08T16:52:27;96039.41;;;4.53;78.22
34979;BME280;21185;50.978;13.720;2023-03-08T16:57:29;96037.81;;;4.52;78.22
34979;BME280;21185;50.978;13.720;2023-03-08T17:02:31;96036.81;;;4.53;78.17
34979;BME280;21185;50.978;13.720;2023-03-08T17:07:33;96037.81;;;4.52;78.26
34979;BME280;21185;50.978;13.720;2023-03-08T17:12:34;96030.63;;;4.47;78.21
34979;BME280;21185;50.978;13.720;2023-03-08T17:17:39;96030.81;;;4.46;78.19
34979;BME280;21185;50.978;13.720;2023-03-08T17:22:41;96033.19;;;4.47;78.21
34979;BME280;21185;50.978;13.720;2023-03-08T17:27:43;96025.31;;;4.49;78.25
34979;BME280;21185;50.978;13.720;2023-03-08T17:32:45;96022.13;;;4.47;78.11
34979;BME280;21185;50.978;13.720;2023-03-08T17:37:47;96009.84;;;4.42;78.32
34979;BME280;21185;50.978;13.720;2023-03-08T17:42:50;96000.91;;;4.38;78.38
34979;BME280;21185;50.978;13.720;2023-03-08T17:47:52;96007.34;;;4.34;78.54
34979;BME280;21185;50.978;13.720;2023-03-08T17:53:02;96000.63;;;4.33;78.44
34979;BME280;21185;50.978;13.720;2023-03-08T17:58:03;96000.38;;;4.28;78.54
34979;BME280;21185;50.978;13.720;2023-03-08T18:03:05;96007.44;;;4.26;78.60
34979;BME280;21185;50.978;13.720;2023-03-08T18:08:07;96006.47;;;4.27;78.37
34979;BME280;21185;50.978;13.720;2023-03-08T18:13:09;96023.91;;;4.32;78.73
34979;BME280;21185;50.978;13.720;2023-03-08T18:18:11;96026.13;;;4.35;78.49
34979;BME280;21185;50.978;13.720;2023-03-08T18:23:13;96025.16;;;4.36;78.39
34979;BME280;21185;50.978;13.720;2023-03-08T18:28:15;96020.47;;;4.39;78.25
34979;BME280;21185;50.978;13.720;2023-03-08T18:33:19;96015.16;;;4.41;78.40
34979;BME280;21185;50.978;13.720;2023-03-08T18:38:23;96007.44;;;4.41;78.50
34979;BME280;21185;50.978;13.720;2023-03-08T18:43:25;96003.91;;;4.42;78.37
34979;BME280;21185;50.978;13.720;2023-03-08T18:48:27;96011.59;;;4.42;78.49
34979;BME280;21185;50.978;13.720;2023-03-08T18:53:29;96008.06;;;4.43;78.65
34979;BME280;21185;50.978;13.720;2023-03-08T18:58:31;96012.84;;;4.46;78.30
34979;BME280;21185;50.978;13.720;2023-03-08T19:03:34;96013.63;;;4.46;78.58
34979;BME280;21185;50.978;13.720;2023-03-08T19:08:36;96012.22;;;4.44;78.58
34979;BME280;21185;50.978;13.720;2023-03-08T19:13:38;96009.03;;;4.42;78.60
34979;BME280;21185;50.978;13.720;2023-03-08T19:18:40;96001.34;;;4.42;78.41
34979;BME280;21185;50.978;13.720;2023-03-08T19:23:42;96003.72;;;4.43;78.47
34979;BME280;21185;50.978;13.720;2023-03-08T19:28:44;95997.59;;;4.44;78.63
34979;BME280;21185;50.978;13.720;2023-03-08T19:33:46;96006.47;;;4.42;78.37
34979;BME280;21185;50.978;13.720;2023-03-08T19:38:50;96003.91;;;4.42;78.83
34979;BME280;21185;50.978;13.720;2023-03-08T19:43:52;96001.50;;;4.40;78.61
34979;BME280;21185;50.978;13.720;2023-03-08T19:48:54;95996.72;;;4.37;78.75
34979;BME280;21185;50.978;13.720;2023-03-08T19:53:56;95986.47;;;4.37;78.80
34979;BME280;21185;50.978;13.720;2023-03-08T19:58:58;95996.38;;;4.40;78.76
34979;BME280;21185;50.978;13.720;2023-03-08T20:04:00;95993.44;;;4.43;78.73
34979;BME280;21185;50.978;13.720;2023-03-08T20:09:03;95994.06;;;4.45;78.60
34979;BME280;21185;50.978;13.720;2023-03-08T20:14:06;95998.22;;;4.46;78.56
34979;BME280;21185;50.978;13.720;2023-03-08T20:19:09;95998.84;;;4.48;79.05
34979;BME280;21185;50.978;13.720;2023-03-08T20:24:10;95997.88;;;4.49;78.73
34979;BME280;21185;50.978;13.720;2023-03-08T20:29:14;96000.44;;;4.49;78.67
34979;BME280;21185;50.978;13.720;2023-03-08T20:34:16;95996.09;;;4.50;78.70
34979;BME280;21185;50.978;13.720;2023-03-08T20:39:18;96006.97;;;4.52;78.47
34979;BME280;21185;50.978;13.720;2023-03-08T20:44:22;96012.91;;;4.52;78.75
34979;BME280;21185;50.978;13.720;2023-03-08T20:49:23;96012.91;;;4.52;78.70
34979;BME280;21185;50.978;13.720;2023-03-08T20:54:27;96019.81;;;4.52;78.86
34979;BME280;21185;50.978;13.720;2023-03-08T20:59:29;96013.91;;;4.51;78.79
34979;BME280;21185;50.978;13.720;2023-03-08T21:04:31;96005.41;;;4.51;78.75
34979;BME280;21185;50.978;13.720;2023-03-08T21:09:33;96005.56;;;4.49;78.79
34979;BME280;21185;50.978;13.720;2023-03-08T21:14:35;96004.78;;;4.49;78.95
34979;BME280;21185;50.978;13.720;2023-03-08T21:19:37;95998.84;;;4.48;78.86
34979;BME280;21185;50.978;13.720;2023-03-08T21:24:39;95991.31;;;4.47;79.00
34979;BME280;21185;50.978;13.720;2023-03-08T21:29:41;95986.97;;;4.47;78.90
34979;BME280;21185;50.978;13.720;2023-03-08T21:34:43;95988.56;;;4.48;78.81
34979;BME280;21185;50.978;13.720;2023-03-08T21:39:45;95986.00;;;4.48;78.95
34979;BME280;21185;50.978;13.720;2023-03-08T21:44:47;95982.47;;;4.49;78.79
34979;BME280;21185;50.978;13.720;2023-03-08T21:49:49;95979.09;;;4.49;79.12
34979;BME280;21185;50.978;13.720;2023-03-08T21:54:50;95969.63;;;4.49;79.09
34979;BME280;21185;50.978;13.720;2023-03-08T21:59:52;95963.50;;;4.50;79.00
34979;BME280;21185;50.978;13.720;2023-03-08T22:04:54;95957.56;;;4.50;79.08
34979;BME280;21185;50.978;13.720;2023-03-08T22:09:56;95957.41;;;4.51;78.92
34979;BME280;21185;50.978;13.720;2023-03-08T22:14:58;95953.84;;;4.52;78.96
34979;BME280;21185;50.978;13.720;2023-03-08T22:20:00;95953.06;;;4.52;78.92
34979;BME280;21185;50.978;13.720;2023-03-08T22:25:02;95945.16;;;4.53;79.06
34979;BME280;21185;50.978;13.720;2023-03-08T22:30:06;95947.75;;;4.53;78.99
34979;BME280;21185;50.978;13.720;2023-03-08T22:35:11;95959.00;;;4.52;78.91
34979;BME280;21185;50.978;13.720;2023-03-08T22:40:13;95932.69;;;4.50;79.27
34979;BME280;21185;50.978;13.720;2023-03-08T22:45:15;95938.19;;;4.47;79.18
34979;BME280;21185;50.978;13.720;2023-03-08T22:50:17;95939.53;;;4.43;79.20
34979;BME280;21185;50.978;13.720;2023-03-08T22:55:19;95935.38;;;4.42;79.18
34979;BME280;21185;50.978;13.720;2023-03-08T23:00:21;95935.53;;;4.41;78.99
34979;BME280;21185;50.978;13.720;2023-03-08T23:05:24;95942.28;;;4.42;79.21
34979;BME280;21185;50.978;13.720;2023-03-08T23:10:26;95937.31;;;4.40;79.14
34979;BME280;21185;50.978;13.720;2023-03-08T23:15:28;95935.91;;;4.38;79.36
34979;BME280;21185;50.978;13.720;2023-03-08T23:20:30;95930.94;;;4.36;79.37
34979;BME280;21185;50.978;13.720;2023-03-08T23:25:33;95925.19;;;4.34;79.38
34979;BME280;21185;50.978;13.720;2023-03-08T23:30:35;95930.34;;;4.34;79.33
34979;BME280;21185;50.978;13.720;2023-03-08T23:35:37;95936.63;;;4.32;79.40
34979;BME280;21185;50.978;13.720;2023-03-08T23:40:39;95929.47;;;4.27;79.56
34979;BME280;21185;50.978;13.720;2023-03-08T23:45:41;95926.09;;;4.27;79.63
34979;BME280;21185;50.978;13.720;2023-03-08T23:50:43;95904.78;;;4.26;79.53
34979;BME280;21185;50.978;13.720;2023-03-08T23:55:45;95902.19;;;4.26;79.70
